Time;durP1;ratioP1;P1;durP2;ratioP2;P2;SDS_P1;SDS_P2;PMS_P1;PMS_P2;Temp;Humidity;BMP_temperature;BMP_pressure;BME280_temperature;BME280_humidity;BME280_pressure;Samples;Min_cycle;Max_cycle;Signal;HPM_P1;HPM_P2
2024/02/29 00:02:22;;;;;;;;;;;6.70;99.90;;;6.93;67.43;100585.69;4941341;29;19966;-85
2024/02/29 00:04:50;;;;;;;;;;;6.70;99.90;;;6.94;67.44;100583.84;4957269;28;20024;-84
2024/02/29 00:07:18;;;;;;;;;;;6.70;99.90;;;6.91;67.38;100578.91;4971365;28;19930;-85
2024/02/29 00:09:45;;;;;;;;;;;6.70;99.90;;;6.90;67.31;100570.13;4957508;29;19934;-85
2024/02/29 00:12:12;;;;;;;;;;;6.70;99.90;;;6.90;67.35;100567.50;4940757;29;19926;-85
2024/02/29 00:14:42;;;;;;;;;;;6.70;99.90;;;6.89;67.50;100562.38;4956627;28;20311;-85
2024/02/29 00:17:10;;;;;;;;;;;6.70;99.90;;;6.90;67.46;100570.13;4939490;29;19927;-84
2024/02/29 00:19:37;;;;;;;;;;;6.70;99.90;;;6.89;67.32;100562.38;4939971;29;20287;-85
2024/02/29 00:22:05;;;;;;;;;;;6.70;99.90;;;6.86;67.44;100558.25;4936891;29;19927;-84
2024/02/29 00:24:32;;;;;;;;;;;6.70;99.90;;;6.88;67.18;100564.22;4954129;29;19933;-84
2024/02/29 00:27:00;;;;;;;;;;;6.70;99.90;;;6.89;67.37;100559.72;4935652;29;19927;-84
2024/02/29 00:29:28;;;;;;;;;;;6.70;99.90;;;6.88;67.36;100556.25;4917348;29;19934;-85
2024/02/29 00:32:00;;;;;;;;;;;6.70;99.90;;;6.87;66.95;100553.78;4944298;29;19958;-85
2024/02/29 00:34:28;;;;;;;;;;;6.70;99.90;;;6.86;66.97;100549.47;4961767;29;19958;-85
2024/02/29 00:36:55;;;;;;;;;;;6.60;99.90;;;6.86;66.99;100545.00;4942914;29;19934;-85
2024/02/29 00:39:22;;;;;;;;;;;6.70;99.90;;;6.84;66.78;100548.84;4975724;28;19958;-85
2024/02/29 00:41:50;;;;;;;;;;;6.60;99.90;;;6.84;66.88;100552.31;4943311;29;19926;-85
2024/02/29 00:44:17;;;;;;;;;;;6.60;99.90;;;6.84;67.05;100547.03;4962561;29;19927;-85
2024/02/29 00:46:44;;;;;;;;;;;6.60;99.90;;;6.85;66.83;100537.25;4957311;28;19981;-85
2024/02/29 00:49:14;;;;;;;;;;;6.60;99.90;;;6.84;66.62;100536.41;4957893;29;19973;-85
2024/02/29 00:51:42;;;;;;;;;;;6.60;99.90;;;6.80;66.10;100536.97;4956635;28;20042;-85
2024/02/29 00:54:09;;;;;;;;;;;6.60;99.90;;;6.81;66.60;100528.00;4957429;29;20009;-85
2024/02/29 00:56:36;;;;;;;;;;;6.60;99.90;;;6.79;66.30;100530.03;4956630;29;19926;-81
2024/02/29 00:59:04;;;;;;;;;;;6.60;99.90;;;6.79;66.73;100522.09;4937866;29;19926;-85
2024/02/29 01:01:31;;;;;;;;;;;6.60;99.90;;;6.77;66.62;100516.94;4904662;29;19927;-85
2024/02/29 01:03:58;;;;;;;;;;;6.60;99.90;;;6.80;66.76;100526.38;4951675;29;20009;-84
2024/02/29 01:06:27;;;;;;;;;;;6.60;99.90;;;6.81;66.74;100520.06;4959026;28;19931;-85
2024/02/29 01:08:55;;;;;;;;;;;6.60;99.90;;;6.79;66.22;100519.44;4960259;29;19926;-85
2024/02/29 01:11:22;;;;;;;;;;;6.60;99.90;;;6.78;66.35;100517.75;4941856;29;20403;-85
2024/02/29 01:13:51;;;;;;;;;;;6.60;99.90;;;6.77;66.62;100511.66;4959110;28;19950;-85
2024/02/29 01:16:18;;;;;;;;;;;6.60;99.90;;;6.77;66.26;100508.19;4959721;29;19942;-86
2024/02/29 01:18:48;;;;;;;;;;;6.60;99.90;;;6.78;66.38;100502.69;4952151;29;19970;-86
2024/02/29 01:21:16;;;;;;;;;;;6.60;99.90;;;6.76;65.99;100501.25;4961497;29;19933;-86
2024/02/29 01:23:45;;;;;;;;;;;6.60;99.90;;;6.74;65.95;100498.78;4961126;29;19993;-85
2024/02/29 01:26:12;;;;;;;;;;;6.60;99.90;;;6.74;65.96;100496.13;4945240;29;19937;-85
2024/02/29 01:28:39;;;;;;;;;;;6.60;99.90;;;6.75;65.86;100499.59;4962164;28;20047;-85
2024/02/29 01:31:07;;;;;;;;;;;6.60;99.90;;;6.73;65.87;100483.88;4947554;29;19927;-85
2024/02/29 01:33:35;;;;;;;;;;;6.50;99.90;;;6.72;65.90;100485.69;4965520;28;19926;-86
2024/02/29 01:36:02;;;;;;;;;;;6.50;99.90;;;6.72;65.84;100477.75;4953011;29;19931;-86
2024/02/29 01:38:29;;;;;;;;;;;6.60;99.90;;;6.74;65.94;100479.41;4954632;29;19926;-85
2024/02/29 01:40:58;;;;;;;;;;;6.50;99.90;;;6.72;65.73;100474.28;4965066;29;19926;-85
2024/02/29 01:43:29;;;;;;;;;;;6.50;99.90;;;6.69;65.42;100475.47;4962589;29;19973;-86
2024/02/29 01:46:12;;;;;;;;;;;6.50;99.90;;;6.68;65.51;100465.06;4941438;29;19962;-86
2024/02/29 01:48:39;;;;;;;;;;;6.50;99.90;;;6.68;65.55;100455.25;4941710;29;20013;-85
2024/02/29 01:51:07;;;;;;;;;;;6.50;99.90;;;6.67;65.34;100466.88;4926692;29;19927;-85
2024/02/29 01:53:35;;;;;;;;;;;6.50;99.90;;;6.66;65.30;100465.25;4941885;29;20348;-85
2024/02/29 01:56:05;;;;;;;;;;;6.50;99.90;;;6.63;64.59;100464.78;4925007;29;19933;-85
2024/02/29 01:58:33;;;;;;;;;;;6.40;99.90;;;6.55;64.26;100465.72;4939797;29;19930;-85
2024/02/29 02:01:01;;;;;;;;;;;6.40;99.90;;;6.60;64.67;100450.09;4955907;29;19927;-85
2024/02/29 02:03:30;;;;;;;;;;;6.40;99.90;;;6.62;64.78;100449.91;4956268;28;19935;-84
2024/02/29 02:05:57;;;;;;;;;;;6.50;99.90;;;6.59;64.57;100447.63;4930309;29;19962;-85
2024/02/29 02:08:27;;;;;;;;;;;6.40;99.90;;;6.61;64.69;100443.78;4908033;29;19926;-85
2024/02/29 02:10:55;;;;;;;;;;;6.50;99.90;;;6.63;64.75;100447.06;4940131;29;19932;-85
2024/02/29 02:13:23;;;;;;;;;;;6.40;99.90;;;6.63;65.11;100446.25;4940256;29;19937;-85
2024/02/29 02:15:50;;;;;;;;;;;6.40;99.90;;;6.60;64.25;100444.78;4940389;29;19956;-85
2024/02/29 02:18:18;;;;;;;;;;;6.40;99.90;;;6.58;64.11;100441.50;4942308;29;19969;-85
2024/02/29 02:20:50;;;;;;;;;;;6.40;99.90;;;6.57;64.38;100439.84;4942807;29;20000;-84
2024/02/29 02:23:17;;;;;;;;;;;6.40;99.90;;;6.58;64.45;100430.91;4938805;29;19926;-85
2024/02/29 02:25:44;;;;;;;;;;;6.40;99.90;;;6.57;64.24;100433.75;4935461;29;19962;-85
2024/02/29 02:28:12;;;;;;;;;;;6.40;99.90;;;6.47;63.15;100428.72;4934628;29;19974;-85
2024/02/29 02:30:40;;;;;;;;;;;6.40;99.90;;;6.49;63.81;100432.03;4933531;29;20488;-84
2024/02/29 02:33:07;;;;;;;;;;;6.30;99.90;;;6.51;64.02;100423.88;4934310;29;19927;-85
2024/02/29 02:35:34;;;;;;;;;;;6.40;99.90;;;6.52;64.37;100420.22;4936029;29;19933;-84
2024/02/29 02:38:05;;;;;;;;;;;6.30;99.90;;;6.40;63.21;100417.25;4935998;29;20408;-85
2024/02/29 02:40:34;;;;;;;;;;;6.30;99.90;;;6.45;63.85;100412.22;4935076;29;19963;-84
2024/02/29 02:43:02;;;;;;;;;;;6.30;99.90;;;6.44;61.97;100402.59;4934534;29;20009;-85
2024/02/29 02:45:29;;;;;;;;;;;6.30;99.90;;;6.36;62.62;100400.06;4934288;29;19971;-85
2024/02/29 02:47:56;;;;;;;;;;;6.30;99.90;;;6.40;62.47;100394.22;4934581;29;19927;-85
2024/02/29 02:50:24;;;;;;;;;;;6.30;99.90;;;6.35;61.61;100393.97;4936644;29;19927;-85
2024/02/29 02:52:52;;;;;;;;;;;6.30;99.90;;;6.35;62.64;100386.03;4935863;29;19934;-84
2024/02/29 02:55:20;;;;;;;;;;;6.30;99.90;;;6.41;63.09;100393.22;4933974;29;19990;-85
2024/02/29 02:57:48;;;;;;;;;;;6.30;99.90;;;6.39;62.61;100382.00;4935272;29;19935;-84
2024/02/29 03:00:16;;;;;;;;;;;6.30;99.90;;;6.40;62.98;100373.03;4934035;29;20021;-84
2024/02/29 03:02:43;;;;;;;;;;;6.30;99.90;;;6.42;62.68;100373.66;4954137;29;19926;-85
2024/02/29 03:05:12;;;;;;;;;;;6.30;99.90;;;6.45;62.91;100364.53;4938111;29;19931;-85
2024/02/29 03:07:39;;;;;;;;;;;6.30;99.90;;;6.45;62.81;100368.00;4953849;28;19926;-84
2024/02/29 03:10:08;;;;;;;;;;;6.30;99.90;;;6.42;62.68;100362.25;4939019;29;20407;-85
2024/02/29 03:12:37;;;;;;;;;;;6.30;99.90;;;6.44;62.15;100360.22;4937930;29;20392;-85
2024/02/29 03:15:06;;;;;;;;;;;6.30;99.90;;;6.38;61.86;100356.50;4939154;29;19927;-85
2024/02/29 03:17:33;;;;;;;;;;;6.30;99.90;;;6.43;62.81;100355.94;4939341;29;19934;-85
2024/02/29 03:20:01;;;;;;;;;;;6.30;99.90;;;6.44;62.80;100346.97;4940458;29;19966;-85
2024/02/29 03:22:28;;;;;;;;;;;6.30;99.90;;;6.43;62.21;100342.69;4939322;29;20021;-85
2024/02/29 03:24:56;;;;;;;;;;;6.30;99.90;;;6.41;62.06;100332.28;4921881;29;19937;-85
2024/02/29 03:27:23;;;;;;;;;;;6.30;99.90;;;6.42;62.39;100325.97;4923927;29;20451;-85
2024/02/29 03:29:53;;;;;;;;;;;6.30;99.90;;;6.35;61.36;100325.09;4937731;29;19963;-85
2024/02/29 03:32:20;;;;;;;;;;;6.20;99.90;;;6.34;60.92;100325.25;4940279;29;19934;-85
2024/02/29 03:34:47;;;;;;;;;;;6.20;99.90;;;6.35;61.33;100321.63;4936534;29;20360;-81
2024/02/29 03:37:14;;;;;;;;;;;6.20;99.90;;;6.34;61.52;100315.50;4922412;29;20455;-85
2024/02/29 03:39:41;;;;;;;;;;;6.20;99.90;;;6.36;61.25;100310.84;4920443;29;20427;-83
2024/02/29 03:42:09;;;;;;;;;;;6.20;99.90;;;6.34;61.39;100315.50;4938981;29;19926;-84
2024/02/29 03:44:37;;;;;;;;;;;6.20;99.90;;;6.35;61.37;100311.84;4942135;29;19926;-85
2024/02/29 03:47:06;;;;;;;;;;;6.20;99.90;;;6.37;61.53;100303.72;4960346;29;20016;-85
2024/02/29 03:49:33;;;;;;;;;;;6.20;99.90;;;6.39;62.06;100299.03;4934237;29;19962;-85
2024/02/29 03:52:02;;;;;;;;;;;6.20;99.90;;;6.37;61.57;100304.53;4945976;29;19926;-85
2024/02/29 03:54:29;;;;;;;;;;;6.20;99.90;;;6.37;61.18;100290.47;4944497;28;20315;-84
2024/02/29 03:56:56;;;;;;;;;;;6.20;99.90;;;6.27;60.75;100287.31;4945170;29;19950;-85
2024/02/29 03:59:26;;;;;;;;;;;6.20;99.90;;;6.29;61.26;100288.75;4947135;29;19992;-85
2024/02/29 04:01:55;;;;;;;;;;;6.20;99.90;;;6.35;61.78;100289.84;4946217;29;20028;-85
2024/02/29 04:04:24;;;;;;;;;;;6.20;99.90;;;6.31;60.83;100288.59;4959234;28;19973;-85
2024/02/29 04:06:51;;;;;;;;;;;6.20;99.90;;;6.22;61.27;100287.06;4956536;28;19982;-85
2024/02/29 04:09:19;;;;;;;;;;;6.10;99.90;;;6.29;61.76;100294.03;4945746;29;19927;-85
2024/02/29 04:11:46;;;;;;;;;;;6.20;99.90;;;6.29;61.05;100290.59;4906396;29;19927;-85
2024/02/29 04:14:13;;;;;;;;;;;6.20;99.90;;;6.28;61.19;100287.13;4955148;29;20421;-85
2024/02/29 04:16:41;;;;;;;;;;;6.20;99.90;;;6.26;60.99;100283.03;4958318;28;19931;-84
2024/02/29 04:19:08;;;;;;;;;;;6.20;99.90;;;6.27;61.02;100287.31;4958772;28;19927;-85
2024/02/29 04:21:37;;;;;;;;;;;6.20;99.90;;;6.30;61.69;100282.47;4958470;28;19927;-85
2024/02/29 04:24:04;;;;;;;;;;;6.20;99.90;;;6.33;61.63;100283.91;4956945;29;20017;-85
2024/02/29 04:26:32;;;;;;;;;;;6.20;99.90;;;6.33;61.75;100274.13;4940889;29;20411;-85
2024/02/29 04:29:00;;;;;;;;;;;6.20;99.90;;;6.35;62.01;100274.78;4940526;29;20387;-85
2024/02/29 04:31:27;;;;;;;;;;;6.20;99.90;;;6.26;60.72;100267.13;4941177;29;20379;-85
2024/02/29 04:33:55;;;;;;;;;;;6.20;99.90;;;6.18;60.35;100268.06;4893055;29;20025;-85
2024/02/29 04:36:22;;;;;;;;;;;6.20;99.90;;;6.25;61.86;100258.38;4920145;29;19927;-84
2024/02/29 04:38:51;;;;;;;;;;;6.20;99.90;;;6.31;62.15;100259.44;4956002;28;19927;-85
2024/02/29 04:41:22;;;;;;;;;;;6.20;99.90;;;6.31;61.95;100257.63;4957778;29;19933;-85
2024/02/29 04:43:49;;;;;;;;;;;6.20;99.90;;;6.26;61.42;100257.38;4940200;29;20306;-85
2024/02/29 04:46:19;;;;;;;;;;;6.10;99.90;;;6.28;61.65;100255.34;4957424;29;20041;-85
2024/02/29 04:48:47;;;;;;;;;;;6.10;99.90;;;6.31;61.95;100248.84;4958342;28;19980;-85
2024/02/29 04:51:14;;;;;;;;;;;6.20;99.90;;;6.17;60.17;100250.53;4957709;28;19930;-85
2024/02/29 04:53:42;;;;;;;;;;;6.10;99.90;;;6.13;61.84;100241.34;4924651;29;19927;-85
2024/02/29 04:56:10;;;;;;;;;;;6.10;99.90;;;6.19;61.93;100243.22;4939716;29;19981;-85
2024/02/29 04:58:37;;;;;;;;;;;6.10;99.90;;;6.19;61.26;100238.75;4957257;28;19934;-85
2024/02/29 05:01:05;;;;;;;;;;;6.10;99.90;;;6.22;61.29;100234.09;4940683;29;19927;-85
2024/02/29 05:03:33;;;;;;;;;;;6.20;99.90;;;6.19;61.16;100222.84;4941752;29;20013;-85
2024/02/29 05:06:03;;;;;;;;;;;6.10;99.90;;;6.22;62.16;100224.31;4955501;28;20284;-83
2024/02/29 05:08:30;;;;;;;;;;;6.10;99.90;;;6.25;61.89;100213.34;4955982;28;20383;-83
2024/02/29 05:10:58;;;;;;;;;;;6.10;99.90;;;6.16;60.99;100210.00;4941058;29;20033;-82
2024/02/29 05:13:27;;;;;;;;;;;6.10;99.90;;;6.22;61.43;100212.91;4958257;29;20387;-83
2024/02/29 05:15:54;;;;;;;;;;;6.10;99.90;;;6.22;61.07;100208.44;4956880;28;19930;-83
2024/02/29 05:18:21;;;;;;;;;;;6.40;99.90;;;6.17;59.80;100209.00;4958647;29;19957;-81
2024/02/29 05:20:49;;;;;;;;;;;6.10;99.90;;;6.11;60.07;100203.66;4921923;29;20446;-80
2024/02/29 05:23:16;;;;;;;;;;;6.00;99.90;;;6.03;59.65;100198.47;4938573;29;19957;-81
2024/02/29 05:25:43;;;;;;;;;;;6.00;99.90;;;6.03;58.65;100209.06;4959504;29;19978;-82
2024/02/29 05:28:10;;;;;;;;;;;6.00;99.90;;;5.99;60.20;100213.06;4956253;28;20288;-81
2024/02/29 05:30:39;;;;;;;;;;;6.00;99.90;;;5.91;59.48;100206.91;4940534;29;19926;-82
2024/02/29 05:33:06;;;;;;;;;;;5.90;99.90;;;6.00;60.78;100210.22;4940980;29;19927;-79
2024/02/29 05:35:34;;;;;;;;;;;6.00;99.90;;;6.04;59.40;100197.44;4941539;28;19927;-81
2024/02/29 05:38:03;;;;;;;;;;;6.00;99.90;;;6.04;60.05;100200.91;4929232;29;19927;-80
2024/02/29 05:40:30;;;;;;;;;;;6.00;99.90;;;5.88;58.00;100194.00;4956182;29;19934;-81
2024/02/29 05:42:58;;;;;;;;;;;5.90;99.90;;;5.92;58.85;100194.50;4957913;29;20376;-81
2024/02/29 05:45:25;;;;;;;;;;;5.90;99.90;;;6.02;60.15;100195.00;4947326;29;20459;-80
2024/02/29 05:47:54;;;;;;;;;;;6.00;99.90;;;6.07;60.40;100189.97;4939580;29;19933;-80
2024/02/29 05:50:21;;;;;;;;;;;6.00;99.90;;;6.11;60.66;100185.94;4923371;29;19931;-81
2024/02/29 05:52:51;;;;;;;;;;;6.00;99.90;;;6.05;59.02;100189.34;4906698;29;19937;-81
2024/02/29 05:55:18;;;;;;;;;;;6.00;99.90;;;5.97;58.64;100186.81;4929841;29;19934;-81
2024/02/29 05:57:46;;;;;;;;;;;6.00;99.90;;;5.97;58.75;100189.44;4944704;29;19990;-84
2024/02/29 06:00:17;;;;;;;;;;;5.90;99.90;;;6.05;59.91;100192.00;4935231;29;20455;-83
2024/02/29 06:02:47;;;;;;;;;;;6.00;99.90;;;6.07;59.50;100189.97;4947907;29;19931;-83
2024/02/29 06:05:17;;;;;;;;;;;6.00;99.90;;;5.98;57.35;100183.16;4924318;29;19931;-83
2024/02/29 06:07:45;;;;;;;;;;;6.00;99.90;;;6.01;59.13;100184.63;4955578;28;19978;-83
2024/02/29 06:10:15;;;;;;;;;;;6.00;99.90;;;6.04;58.22;100177.09;4955951;29;20307;-83
2024/02/29 06:12:42;;;;;;;;;;;6.00;99.90;;;6.02;58.88;100171.19;4925689;29;20419;-83
2024/02/29 06:15:10;;;;;;;;;;;6.00;99.90;;;6.00;58.22;100172.34;4942806;29;19933;-83
2024/02/29 06:17:37;;;;;;;;;;;6.00;99.90;;;5.93;58.41;100167.00;4941664;29;19927;-83
2024/02/29 06:20:10;;;;;;;;;;;6.00;99.90;;;5.99;57.51;100168.09;4927745;29;19954;-83
2024/02/29 06:22:40;;;;;;;;;;;6.00;99.90;;;5.98;57.20;100169.09;4942731;29;19933;-83
2024/02/29 06:25:08;;;;;;;;;;;6.00;99.90;;;5.90;56.60;100164.69;4942595;29;20391;-83
2024/02/29 06:27:37;;;;;;;;;;;6.00;99.90;;;5.97;58.02;100167.47;4959769;28;20375;-83
2024/02/29 06:30:08;;;;;;;;;;;6.00;99.90;;;6.01;57.31;100169.53;4960361;28;20032;-84
2024/02/29 06:32:35;;;;;;;;;;;6.00;99.90;;;6.02;58.01;100168.53;4943291;29;19931;-83
2024/02/29 06:35:04;;;;;;;;;;;6.00;99.90;;;5.99;57.22;100171.53;4963468;28;19950;-83
2024/02/29 06:37:31;;;;;;;;;;;6.00;99.90;;;5.89;57.32;100163.06;4946998;29;19948;-84
2024/02/29 06:40:00;;;;;;;;;;;6.00;99.90;;;5.87;57.52;100171.19;4947969;29;20025;-83
2024/02/29 06:42:27;;;;;;;;;;;6.00;99.90;;;5.95;57.67;100164.97;4947602;29;20029;-83
2024/02/29 06:44:55;;;;;;;;;;;6.00;99.90;;;5.89;57.21;100163.06;4963387;28;20429;-84
2024/02/29 06:47:23;;;;;;;;;;;6.00;99.90;;;5.80;57.14;100159.72;4963930;28;19977;-83
2024/02/29 06:49:50;;;;;;;;;;;6.00;99.90;;;5.81;57.20;100168.50;4962760;28;20387;-84
2024/02/29 06:52:18;;;;;;;;;;;6.00;99.90;;;5.83;58.18;100158.53;4963553;28;20450;-83
2024/02/29 06:54:45;;;;;;;;;;;6.00;99.90;;;5.85;58.12;100153.84;4963144;29;19978;-83
2024/02/29 06:57:14;;;;;;;;;;;6.00;99.90;;;5.95;58.37;100162.34;4946193;29;19926;-83
2024/02/29 06:59:42;;;;;;;;;;;6.00;99.90;;;5.91;57.21;100156.63;4946063;29;19941;-83
2024/02/29 07:02:10;;;;;;;;;;;6.10;99.90;;;5.85;58.08;100154.69;4963647;28;19927;-83
2024/02/29 07:04:38;;;;;;;;;;;6.10;99.90;;;5.93;57.97;100151.13;4962975;28;19957;-83
2024/02/29 07:07:07;;;;;;;;;;;6.10;99.90;;;5.86;58.57;100152.88;4946747;29;19931;-83
2024/02/29 07:09:34;;;;;;;;;;;6.10;99.90;;;5.91;58.58;100153.97;4964020;29;19936;-84
2024/02/29 07:12:02;;;;;;;;;;;6.10;99.90;;;5.90;58.82;100152.31;4963673;28;19969;-84
2024/02/29 07:14:31;;;;;;;;;;;6.10;99.90;;;5.96;59.24;100153.41;4962222;28;19965;-84
2024/02/29 07:16:59;;;;;;;;;;;6.10;99.90;;;5.97;58.88;100149.75;4962991;29;19926;-84
2024/02/29 07:19:27;;;;;;;;;;;6.20;99.90;;;6.02;59.11;100151.84;4963197;28;20029;-84
2024/02/29 07:21:56;;;;;;;;;;;6.20;99.90;;;6.03;59.33;100141.03;4946184;29;19927;-84
2024/02/29 07:24:23;;;;;;;;;;;6.20;99.90;;;6.05;58.88;100146.13;4963598;28;19926;-84
2024/02/29 07:26:52;;;;;;;;;;;6.30;99.90;;;6.05;59.53;100141.69;4946382;29;20336;-84
2024/02/29 07:29:20;;;;;;;;;;;6.30;99.90;;;6.08;59.22;100141.28;4963727;29;20013;-84
2024/02/29 07:31:50;;;;;;;;;;;6.40;99.90;;;6.05;59.33;100144.34;4963471;28;20295;-84
2024/02/29 07:34:19;;;;;;;;;;;6.40;99.90;;;6.11;59.45;100143.56;4945932;29;19927;-84
2024/02/29 07:36:46;;;;;;;;;;;6.40;99.90;;;6.11;59.64;100138.28;4945952;29;19927;-83
2024/02/29 07:39:14;;;;;;;;;;;6.50;99.90;;;6.13;59.58;100138.91;4945715;29;19926;-84
2024/02/29 07:41:41;;;;;;;;;;;6.50;99.90;;;6.22;59.66;100134.28;4945276;29;20041;-83
2024/02/29 07:44:08;;;;;;;;;;;6.50;99.90;;;6.31;59.24;100140.28;4922244;29;19931;-84
2024/02/29 07:46:36;;;;;;;;;;;6.60;99.90;;;6.28;59.43;100125.56;4932010;29;19927;-84
2024/02/29 07:49:05;;;;;;;;;;;6.60;99.90;;;6.32;59.42;100129.47;4891433;29;19935;-84
2024/02/29 07:51:32;;;;;;;;;;;6.60;99.90;;;6.36;59.20;100128.09;4938461;29;19927;-84
2024/02/29 07:53:59;;;;;;;;;;;6.70;99.90;;;6.43;59.96;100130.78;4906721;29;19927;-84
2024/02/29 07:56:27;;;;;;;;;;;6.70;99.90;;;6.43;59.26;100130.78;4938125;29;19951;-84
2024/02/29 07:58:54;;;;;;;;;;;6.80;99.90;;;6.47;59.08;100125.94;4906171;29;19927;-84
2024/02/29 08:01:22;;;;;;;;;;;6.80;99.90;;;6.56;59.72;100130.88;4922651;29;20325;-84
2024/02/29 08:03:49;;;;;;;;;;;6.90;99.90;;;6.62;59.16;100126.63;4922212;29;19933;-84
2024/02/29 08:06:18;;;;;;;;;;;6.90;99.90;;;6.66;59.36;100114.66;4922128;29;19966;-84
2024/02/29 08:08:45;;;;;;;;;;;7.00;99.90;;;6.67;59.50;100122.38;4921704;29;19931;-84
2024/02/29 08:11:12;;;;;;;;;;;7.00;99.90;;;6.74;59.56;100125.09;4922070;29;19927;-84
2024/02/29 08:13:39;;;;;;;;;;;7.10;99.90;;;6.79;59.46;100113.91;4921978;29;20443;-84
2024/02/29 08:16:07;;;;;;;;;;;7.10;99.90;;;6.89;60.12;100114.38;4955932;29;19960;-84
2024/02/29 08:18:34;;;;;;;;;;;7.20;99.90;;;6.96;60.31;100117.88;4945754;29;20021;-84
2024/02/29 08:21:03;;;;;;;;;;;7.30;99.90;;;7.04;60.31;100101.81;4945083;29;19927;-84
2024/02/29 08:23:46;;;;;;;;;;;7.40;99.90;;;7.03;59.78;100117.88;4945340;29;19927;-84
2024/02/29 08:26:13;;;;;;;;;;;7.40;99.90;;;7.09;59.52;100103.88;4944284;29;20398;-83
2024/02/29 08:28:42;;;;;;;;;;;7.40;99.90;;;7.16;59.59;100108.16;4944802;29;19927;-84
2024/02/29 08:31:10;;;;;;;;;;;7.50;99.90;;;7.23;60.10;100106.38;4945519;29;19926;-84
2024/02/29 08:33:38;;;;;;;;;;;7.50;99.90;;;7.29;59.94;100096.81;4945732;29;19927;-84
2024/02/29 08:36:06;;;;;;;;;;;7.60;99.90;;;7.22;59.80;100094.13;4945699;29;19937;-84
2024/02/29 08:38:34;;;;;;;;;;;7.60;99.90;;;7.21;59.96;100095.13;4962794;29;19933;-84
2024/02/29 08:41:04;;;;;;;;;;;7.60;99.90;;;7.27;60.11;100082.94;4946652;29;20319;-84
2024/02/29 08:43:32;;;;;;;;;;;7.60;99.90;;;7.38;60.30;100095.63;4946422;29;20395;-84
2024/02/29 08:46:03;;;;;;;;;;;7.70;99.90;;;7.41;60.18;100081.13;4962054;28;19926;-84
2024/02/29 08:48:32;;;;;;;;;;;7.70;99.90;;;7.44;59.99;100080.72;4961661;29;19926;-84
2024/02/29 08:51:00;;;;;;;;;;;7.80;99.90;;;7.49;59.34;100087.06;4912994;29;19926;-84
2024/02/29 08:53:27;;;;;;;;;;;7.80;99.90;;;7.56;59.38;100076.44;4961709;28;19926;-84
2024/02/29 08:55:54;;;;;;;;;;;7.90;99.90;;;7.64;59.42;100078.13;4943876;29;20470;-84
2024/02/29 08:58:25;;;;;;;;;;;8.00;99.90;;;7.65;59.29;100075.25;4943706;29;19968;-84
2024/02/29 09:00:52;;;;;;;;;;;8.00;99.90;;;7.71;59.85;100071.81;4961566;29;19926;-84
2024/02/29 09:03:20;;;;;;;;;;;8.00;99.90;;;7.78;60.02;100066.50;4943969;29;20284;-84
2024/02/29 09:05:47;;;;;;;;;;;8.10;99.90;;;7.86;59.23;100063.66;4943478;29;20025;-84
2024/02/29 09:08:14;;;;;;;;;;;8.20;99.90;;;7.94;59.41;100068.75;4961626;28;20355;-84
2024/02/29 09:10:41;;;;;;;;;;;8.30;99.90;;;8.03;58.89;100055.28;4960635;28;20462;-84
2024/02/29 09:13:10;;;;;;;;;;;8.40;99.90;;;8.10;58.86;100062.22;4959400;29;19982;-84
2024/02/29 09:15:41;;;;;;;;;;;8.40;99.90;;;8.22;58.75;100049.94;4959651;28;19930;-84
2024/02/29 09:18:10;;;;;;;;;;;8.50;99.90;;;8.32;58.37;100059.34;4960804;29;19933;-84
2024/02/29 09:20:37;;;;;;;;;;;8.60;99.90;;;8.36;56.91;100053.44;4960733;29;19927;-84
2024/02/29 09:23:05;;;;;;;;;;;8.70;99.90;;;8.37;56.90;100059.56;4943632;29;19980;-87
2024/02/29 09:25:32;;;;;;;;;;;8.70;99.90;;;8.31;56.72;100045.25;4927603;29;20359;-84
2024/02/29 09:27:59;;;;;;;;;;;8.70;99.90;;;8.19;55.74;100047.69;4943691;29;19927;-84
2024/02/29 09:30:27;;;;;;;;;;;8.60;99.90;;;8.15;56.48;100043.84;4910359;29;19931;-84
2024/02/29 09:32:56;;;;;;;;;;;8.50;99.90;;;8.18;56.72;100039.94;4941854;29;19927;-84
2024/02/29 09:35:24;;;;;;;;;;;8.50;99.90;;;8.21;56.44;100043.00;4941674;29;19927;-84
2024/02/29 09:37:52;;;;;;;;;;;8.50;99.90;;;8.29;56.71;100043.81;4941909;29;19927;-84
2024/02/29 09:40:20;;;;;;;;;;;8.60;99.90;;;8.30;56.44;100034.84;4942189;29;19927;-84
2024/02/29 09:42:48;;;;;;;;;;;8.60;99.90;;;8.33;57.04;100026.44;4925431;29;19976;-84
2024/02/29 09:45:16;;;;;;;;;;;8.70;99.90;;;8.36;56.50;100028.69;4941485;29;19927;-84
2024/02/29 09:47:44;;;;;;;;;;;8.70;99.90;;;8.42;56.65;100019.91;4943668;29;19927;-84
2024/02/29 09:50:13;;;;;;;;;;;8.70;99.90;;;8.49;56.89;100023.34;4961678;28;19951;-84
2024/02/29 09:52:40;;;;;;;;;;;8.80;99.90;;;8.50;57.02;100014.38;4959656;28;19976;-84
2024/02/29 09:55:13;;;;;;;;;;;8.80;99.90;;;8.53;56.57;100013.94;4961253;28;19931;-84
2024/02/29 09:57:40;;;;;;;;;;;8.90;99.90;;;8.62;58.06;100010.03;4961551;29;19927;-84
2024/02/29 10:00:11;;;;;;;;;;;8.90;99.90;;;8.65;56.72;100006.97;4944277;29;19962;-84
2024/02/29 10:02:40;;;;;;;;;;;9.00;99.90;;;8.66;56.45;100016.56;4961212;29;19927;-84
2024/02/29 10:05:09;;;;;;;;;;;9.00;99.90;;;8.70;56.63;100009.00;4978220;28;19981;-84
2024/02/29 10:07:45;;;;;;;;;;;9.00;99.90;;;8.75;56.55;100006.53;4962263;28;20005;-84
2024/02/29 10:10:14;;;;;;;;;;;9.10;99.90;;;8.83;57.31;100000.13;4965427;28;19948;-84
2024/02/29 10:12:43;;;;;;;;;;;9.20;99.90;;;8.90;57.47;100004.41;4950169;28;19930;-84
2024/02/29 10:15:11;;;;;;;;;;;9.20;99.90;;;8.97;57.24;100002.53;4966138;28;20013;-84
2024/02/29 10:17:39;;;;;;;;;;;9.30;99.90;;;8.99;56.68;99997.81;4965752;28;20050;-84
2024/02/29 10:20:09;;;;;;;;;;;9.30;99.90;;;8.96;56.34;100000.09;4966011;28;19926;-84
2024/02/29 10:22:37;;;;;;;;;;;9.30;99.90;;;9.00;57.14;99988.00;4965326;28;19973;-84
2024/02/29 10:25:11;;;;;;;;;;;9.40;99.90;;;9.02;56.37;99988.59;4948688;28;19927;-84
2024/02/29 10:27:38;;;;;;;;;;;9.40;99.90;;;9.02;57.42;99984.06;4949867;28;19958;-84
2024/02/29 10:30:10;;;;;;;;;;;9.40;99.90;;;9.07;56.50;99972.78;4966357;28;19933;-84
2024/02/29 10:32:37;;;;;;;;;;;9.40;99.90;;;9.07;56.25;99972.78;4981861;28;19930;-84
2024/02/29 10:35:18;;;;;;;;;;;9.40;99.90;;;9.09;56.50;99968.09;4964847;28;20284;-84
2024/02/29 10:37:46;;;;;;;;;;;9.40;99.90;;;9.08;56.46;99966.47;4928062;29;20407;-84
2024/02/29 10:40:15;;;;;;;;;;;9.40;99.90;;;9.07;56.36;99962.16;4927963;29;20303;-84
2024/02/29 10:42:44;;;;;;;;;;;9.40;99.90;;;9.07;55.89;99964.81;4950563;29;19927;-84
2024/02/29 10:45:14;;;;;;;;;;;9.40;99.90;;;9.09;56.32;99970.75;4930646;29;20017;-86
2024/02/29 10:47:45;;;;;;;;;;;9.40;99.90;;;9.12;57.03;99964.19;4963520;29;19930;-84
2024/02/29 10:50:16;;;;;;;;;;;9.50;99.90;;;9.13;56.78;99956.00;4964759;28;19982;-83
2024/02/29 10:52:50;;;;;;;;;;;9.50;99.90;;;9.13;56.08;99958.66;4964449;28;20303;-84
2024/02/29 10:55:25;;;;;;;;;;;9.50;99.90;;;9.13;56.47;99949.88;4947791;29;19931;-84
2024/02/29 10:57:57;;;;;;;;;;;9.50;99.90;;;9.15;56.50;99959.25;4947490;29;20411;-84
2024/02/29 11:00:25;;;;;;;;;;;9.50;99.90;;;9.17;55.99;99954.53;4947938;29;20392;-84
2024/02/29 11:02:53;;;;;;;;;;;9.50;99.90;;;9.17;55.97;99943.88;4948573;29;19927;-84
2024/02/29 11:05:21;;;;;;;;;;;9.50;99.90;;;9.16;55.50;99946.75;4965338;29;19950;-84
2024/02/29 11:07:48;;;;;;;;;;;9.50;99.90;;;9.17;55.56;99951.88;4931045;29;19956;-84
2024/02/29 11:10:16;;;;;;;;;;;9.60;99.90;;;9.17;55.77;99943.06;4946546;29;19927;-84
2024/02/29 11:12:48;;;;;;;;;;;9.50;99.90;;;9.20;56.06;99932.81;4963733;28;19927;-84
2024/02/29 11:15:15;;;;;;;;;;;9.50;99.90;;;9.24;55.80;99935.88;4946460;29;19926;-84
2024/02/29 11:17:45;;;;;;;;;;;9.60;99.90;;;9.28;56.27;99932.56;4945956;29;19926;-84
2024/02/29 11:20:20;;;;;;;;;;;9.60;99.90;;;9.32;56.14;99929.47;4963668;28;19965;-84
2024/02/29 11:22:48;;;;;;;;;;;9.70;99.90;;;9.36;55.77;99920.81;4977823;28;20299;-84
2024/02/29 11:25:29;;;;;;;;;;;9.70;99.90;;;9.40;54.89;99923.88;4945915;29;19926;-84
2024/02/29 11:28:04;;;;;;;;;;;9.70;99.90;;;9.47;56.21;99922.00;4962665;29;19946;-83
2024/02/29 11:30:32;;;;;;;;;;;9.80;99.90;;;9.48;55.36;99915.63;4961693;29;19933;-82
2024/02/29 11:33:09;;;;;;;;;;;9.80;99.90;;;9.51;55.49;99913.31;4963169;28;19933;-83